createdAt,value
2019-02-07T00:04:08.225Z,20.62
2019-02-07T00:09:10.390Z,20.40
2019-02-07T00:14:12.457Z,18.92
2019-02-07T00:19:14.677Z,18.80
2019-02-07T00:24:16.875Z,19.25
2019-02-07T00:29:19.171Z,20.57
2019-02-07T00:34:21.239Z,19.57
2019-02-07T00:39:23.368Z,20.25
2019-02-07T00:44:25.514Z,19.25
2019-02-07T00:49:27.591Z,19.05
2019-02-07T00:54:30.033Z,18.87
2019-02-07T00:59:32.125Z,18.67
2019-02-07T01:04:34.332Z,21.20
2019-02-07T01:09:36.507Z,20.32
2019-02-07T01:14:38.600Z,20.17
2019-02-07T01:19:40.686Z,19.50
2019-02-07T01:24:42.803Z,20.08
2019-02-07T01:29:44.869Z,19.55
2019-02-07T01:34:47.224Z,19.50
2019-02-07T01:39:49.310Z,21.75
2019-02-07T01:44:51.383Z,20.35
2019-02-07T01:49:53.489Z,20.55
2019-02-07T01:54:55.619Z,19.35
2019-02-07T01:59:58.118Z,19.50
2019-02-07T02:05:00.484Z,19.37
2019-02-07T02:10:05.139Z,19.42
2019-02-07T02:15:08.018Z,20.23
2019-02-07T02:20:10.711Z,19.45
2019-02-07T02:25:13.317Z,19.82
2019-02-07T02:30:36.341Z,20.92
2019-02-07T02:35:38.706Z,18.40
2019-02-07T02:40:43.316Z,20.32
2019-02-07T02:45:45.613Z,19.27
2019-02-07T02:50:47.742Z,19.62
2019-02-07T02:55:50.896Z,19.73
2019-02-07T03:01:27.555Z,20.48
2019-02-07T03:06:41.420Z,19.07
2019-02-07T03:11:59.376Z,19.90
2019-02-07T03:17:18.137Z,19.98
2019-02-07T03:22:38.483Z,20.30
2019-02-07T03:27:56.448Z,19.92
2019-02-07T03:33:16.615Z,20.30
2019-02-07T03:38:26.837Z,20.25
2019-02-07T03:43:45.036Z,20.68
2019-02-07T03:49:09.799Z,17.85
2019-02-07T03:54:43.281Z,18.37
2019-02-07T04:00:10.742Z,19.30
2019-02-07T04:05:31.141Z,18.57
2019-02-07T04:11:01.963Z,19.05
2019-02-07T04:16:23.288Z,18.55
2019-02-07T04:21:55.090Z,18.62
2019-02-07T04:27:13.463Z,19.75
2019-02-07T04:32:53.324Z,21.05
2019-02-07T04:38:17.747Z,20.70
2019-02-07T04:43:38.647Z,19.42
2019-02-07T04:48:58.773Z,19.77
2019-02-07T04:54:23.476Z,19.00
2019-02-07T04:59:45.172Z,21.25
2019-02-07T05:05:07.089Z,19.85
2019-02-07T05:10:27.840Z,19.17
2019-02-07T05:15:50.303Z,18.90
2019-02-07T05:21:03.957Z,20.20
2019-02-07T05:26:25.610Z,18.20
2019-02-07T05:31:56.274Z,19.77
2019-02-07T05:37:09.233Z,19.90
2019-02-07T05:42:32.588Z,18.60
2019-02-07T05:47:54.611Z,19.62
2019-02-07T05:53:19.573Z,19.52
2019-02-07T05:58:40.514Z,19.87
2019-02-07T06:03:51.437Z,17.85
2019-02-07T06:09:16.458Z,18.75
2019-02-07T06:14:36.384Z,19.77
2019-02-07T06:19:55.614Z,19.10
2019-02-07T06:25:23.343Z,18.80
2019-02-07T06:30:42.254Z,20.72
2019-02-07T06:35:56.742Z,17.40
2019-02-07T06:41:11.470Z,19.85
2019-02-07T06:46:30.212Z,20.43
2019-02-07T06:52:04.263Z,19.35
2019-02-07T06:57:30.998Z,20.68
2019-02-07T07:02:51.372Z,18.60
2019-02-07T07:08:22.093Z,20.90
2019-02-07T07:13:57.555Z,19.30
2019-02-07T07:19:44.179Z,18.87
2019-02-07T07:25:14.739Z,20.52
2019-02-07T07:30:45.812Z,19.30
2019-02-07T07:41:39.473Z,22.80
2019-02-07T07:53:31.042Z,22.17
2019-02-07T07:59:42.975Z,20.60
2019-02-07T08:05:08.280Z,19.60
2019-02-07T08:23:35.435Z,20.27
2019-02-07T08:30:21.225Z,20.68
2019-02-07T08:42:24.467Z,20.92
2019-02-07T08:48:44.651Z,23.27
2019-02-07T08:54:15.790Z,23.85
2019-02-07T09:06:13.197Z,22.00
2019-02-07T09:11:43.497Z,23.15
2019-02-07T09:23:54.244Z,24.15
2019-02-07T09:29:30.095Z,24.70
2019-02-07T09:41:40.690Z,24.67
2019-02-07T09:47:15.634Z,24.00
2019-02-07T09:53:27.766Z,24.98
2019-02-07T09:58:52.848Z,26.30
2019-02-07T10:04:21.327Z,25.57
2019-02-07T10:09:50.211Z,25.92
2019-02-07T10:15:18.006Z,25.65
2019-02-07T10:20:48.287Z,25.00
2019-02-07T10:26:14.763Z,25.20
2019-02-07T10:31:45.071Z,26.75
2019-02-07T10:37:08.316Z,24.57
2019-02-07T10:42:30.344Z,26.23
2019-02-07T10:48:25.673Z,27.02
2019-02-07T11:00:12.674Z,24.90
2019-02-07T11:05:48.087Z,26.10
2019-02-07T11:11:23.253Z,24.07
2019-02-07T11:16:47.968Z,25.25
2019-02-07T11:28:51.006Z,26.93
2019-02-07T11:34:33.188Z,25.88
2019-02-07T11:39:59.315Z,26.05
2019-02-07T11:45:26.270Z,26.70
2019-02-07T11:50:59.464Z,27.02
2019-02-07T12:02:31.559Z,26.93
2019-02-07T12:08:59.605Z,27.85
2019-02-07T12:14:27.890Z,25.15
2019-02-07T12:20:20.910Z,28.05
2019-02-07T12:26:00.715Z,26.45
2019-02-07T12:31:32.888Z,28.40
2019-02-07T12:43:53.141Z,27.32
2019-02-07T12:49:28.697Z,27.17
2019-02-07T13:00:51.737Z,27.62
2019-02-07T13:13:02.441Z,29.30
2019-02-07T13:18:35.808Z,28.85
2019-02-07T13:24:12.149Z,25.95
2019-02-07T13:29:53.314Z,29.15
2019-02-07T13:35:41.685Z,28.80
2019-02-07T13:41:52.083Z,26.65
2019-02-07T13:54:03.325Z,28.50
2019-02-07T13:59:48.014Z,30.20
2019-02-07T14:05:22.505Z,31.27
2019-02-07T14:10:43.661Z,33.25
2019-02-07T14:16:12.412Z,33.88
2019-02-07T14:27:51.931Z,33.30
2019-02-07T14:33:21.508Z,34.25
2019-02-07T14:38:45.409Z,34.43
2019-02-07T14:49:49.422Z,33.38
2019-02-07T15:13:57.365Z,30.25
2019-02-07T15:24:50.211Z,30.10
2019-02-07T15:29:58.466Z,28.65
2019-02-07T15:36:04.225Z,29.75
2019-02-07T15:41:11.289Z,28.98
2019-02-07T15:46:38.409Z,28.75
2019-02-07T15:52:07.031Z,29.02
2019-02-07T15:57:18.239Z,28.77
2019-02-07T16:02:46.508Z,26.05
2019-02-07T16:07:56.793Z,29.32
2019-02-07T16:13:07.238Z,26.15
2019-02-07T16:18:19.810Z,28.47
2019-02-07T16:23:32.889Z,26.55
2019-02-07T16:28:42.541Z,27.35
2019-02-07T16:33:50.964Z,27.00
2019-02-07T16:39:02.857Z,27.27
2019-02-07T16:44:32.583Z,41.37
2019-02-07T16:55:54.504Z,33.98
2019-02-07T17:02:02.975Z,33.10
2019-02-07T17:08:04.257Z,27.45
2019-02-07T17:13:12.805Z,28.47
2019-02-07T17:18:23.509Z,28.10
2019-02-07T17:23:31.418Z,32.28
2019-02-07T17:29:31.819Z,30.70
2019-02-07T17:46:25.530Z,31.93
2019-02-07T17:51:34.568Z,29.85
2019-02-07T17:57:32.942Z,29.35
2019-02-07T18:02:47.633Z,26.40
2019-02-07T18:20:29.712Z,26.02
2019-02-07T18:25:34.061Z,25.68
2019-02-07T18:30:46.815Z,22.93
2019-02-07T18:36:52.977Z,22.35
2019-02-07T18:42:03.758Z,22.73
2019-02-07T18:47:15.994Z,22.40
2019-02-07T18:58:28.344Z,21.95
2019-02-07T19:16:22.655Z,20.35
2019-02-07T19:21:35.775Z,18.85
2019-02-07T19:26:48.657Z,20.27
2019-02-07T19:38:35.079Z,20.23
2019-02-07T19:43:50.885Z,19.85
2019-02-07T19:49:01.946Z,23.55
2019-02-07T19:59:45.827Z,21.82
2019-02-07T20:11:27.220Z,23.20
2019-02-07T20:16:46.246Z,24.40
2019-02-07T20:29:40.379Z,23.05
2019-02-07T20:34:53.192Z,23.00
2019-02-07T20:45:49.805Z,21.25
2019-02-07T20:51:07.935Z,21.33
2019-02-07T20:56:43.481Z,21.57
2019-02-07T21:01:55.948Z,20.82
2019-02-07T21:07:44.382Z,20.70
2019-02-07T21:13:14.161Z,20.57
2019-02-07T21:25:21.322Z,19.73
2019-02-07T21:36:37.439Z,19.05
2019-02-07T21:49:05.456Z,17.60
2019-02-07T22:01:04.570Z,19.02
2019-02-07T22:13:44.037Z,15.15
2019-02-07T22:19:10.374Z,14.73
2019-02-07T22:24:26.959Z,14.87
2019-02-07T22:29:41.211Z,14.43
2019-02-07T22:40:39.924Z,14.93
2019-02-07T22:51:13.539Z,14.73
2019-02-07T22:56:55.334Z,13.60
2019-02-07T23:02:05.401Z,12.75
2019-02-07T23:07:30.572Z,12.47
2019-02-07T23:19:03.372Z,12.55
2019-02-07T23:24:35.731Z,12.18
2019-02-07T23:30:00.031Z,11.60
2019-02-07T23:36:31.995Z,10.70
2019-02-07T23:41:50.680Z,13.53
2019-02-07T23:47:09.499Z,11.55
2019-02-07T23:52:20.006Z,10.93
2019-02-07T23:57:27.613Z,10.32
